createdAt,value
2018-09-10T00:01:40.510Z,66.56
2018-09-10T00:04:09.016Z,66.23
2018-09-10T00:06:37.752Z,66.83
2018-09-10T00:09:08.243Z,66.76
2018-09-10T00:11:37.583Z,66.88
2018-09-10T00:14:06.011Z,66.92
2018-09-10T00:16:34.280Z,65.91
2018-09-10T00:19:03.338Z,66.80
2018-09-10T00:21:31.814Z,66.06
2018-09-10T00:24:00.127Z,66.59
2018-09-10T00:26:28.252Z,66.52
2018-09-10T00:28:56.380Z,66.14
2018-09-10T00:31:24.866Z,66.32
2018-09-10T00:33:53.168Z,66.74
2018-09-10T00:36:21.648Z,66.12
2018-09-10T00:38:50.330Z,66.25
2018-09-10T00:41:18.638Z,66.81
2018-09-10T00:43:47.620Z,66.24
2018-09-10T00:46:16.000Z,66.74
2018-09-10T00:48:44.703Z,66.89
2018-09-10T00:51:13.067Z,66.34
2018-09-10T00:53:41.471Z,66.94
2018-09-10T00:56:09.916Z,66.60
2018-09-10T00:58:38.684Z,66.60
2018-09-10T01:01:07.459Z,66.42
2018-09-10T01:03:35.971Z,66.52
2018-09-10T01:06:04.304Z,66.81
2018-09-10T01:08:32.681Z,67.04
2018-09-10T01:11:01.135Z,66.84
2018-09-10T01:13:29.543Z,66.98
2018-09-10T01:15:58.303Z,66.42
2018-09-10T01:18:26.527Z,66.97
2018-09-10T01:20:55.307Z,66.75
2018-09-10T01:23:23.435Z,66.29
2018-09-10T01:25:51.551Z,66.34
2018-09-10T01:28:20.138Z,66.51
2018-09-10T01:30:48.708Z,65.87
2018-09-10T01:33:22.736Z,66.53
2018-09-10T01:35:51.075Z,65.74
2018-09-10T01:38:19.236Z,65.67
2018-09-10T01:40:47.677Z,66.28
2018-09-10T01:43:16.428Z,65.95
2018-09-10T01:45:44.546Z,66.52
2018-09-10T01:48:12.669Z,65.96
2018-09-10T01:50:41.495Z,66.55
2018-09-10T01:53:09.946Z,66.01
2018-09-10T01:55:38.515Z,66.10
2018-09-10T01:58:07.048Z,65.91
2018-09-10T02:00:35.341Z,65.76
2018-09-10T02:03:04.132Z,65.83
2018-09-10T02:05:32.803Z,65.46
2018-09-10T02:08:01.550Z,65.65
2018-09-10T02:10:30.044Z,64.99
2018-09-10T02:12:58.817Z,64.67
2018-09-10T02:15:27.651Z,64.87
2018-09-10T02:17:55.791Z,65.01
2018-09-10T02:20:24.306Z,64.69
2018-09-10T02:22:52.867Z,64.80
2018-09-10T02:25:21.637Z,64.14
2018-09-10T02:27:50.120Z,64.69
2018-09-10T02:30:18.742Z,64.97
2018-09-10T02:32:47.204Z,65.66
2018-09-10T02:35:15.795Z,65.53
2018-09-10T02:37:43.907Z,64.81
2018-09-10T02:40:12.604Z,65.05
2018-09-10T02:42:41.078Z,65.34
2018-09-10T02:45:09.427Z,65.56
2018-09-10T02:47:38.356Z,65.83
2018-09-10T02:52:51.589Z,65.08
2018-09-10T02:55:19.858Z,65.31
2018-09-10T02:57:48.287Z,65.19
2018-09-10T03:00:16.668Z,65.07
2018-09-10T03:02:45.129Z,65.08
2018-09-10T03:05:13.439Z,65.67
2018-09-10T03:07:42.003Z,65.14
2018-09-10T03:10:10.462Z,65.33
2018-09-10T03:12:39.134Z,64.84
2018-09-10T03:15:07.691Z,65.62
2018-09-10T03:17:35.812Z,64.95
2018-09-10T03:20:03.983Z,65.58
2018-09-10T03:22:32.531Z,65.72
2018-09-10T03:25:01.059Z,65.94
2018-09-10T03:27:29.799Z,66.22
2018-09-10T03:29:57.919Z,66.39
2018-09-10T03:32:27.088Z,65.94
2018-09-10T03:34:55.575Z,66.28
2018-09-10T03:37:23.688Z,65.26
2018-09-10T03:39:51.809Z,66.28
2018-09-10T03:42:20.256Z,66.11
2018-09-10T03:44:48.420Z,66.88
2018-09-10T03:47:16.920Z,67.29
2018-09-10T03:49:45.486Z,67.19
2018-09-10T03:52:13.940Z,68.21
2018-09-10T03:54:42.408Z,68.05
2018-09-10T03:57:10.539Z,68.10
2018-09-10T03:59:39.135Z,67.96
2018-09-10T04:02:07.551Z,68.06
2018-09-10T04:04:36.380Z,67.64
2018-09-10T04:07:04.563Z,66.73
2018-09-10T04:09:32.776Z,66.27
2018-09-10T04:12:01.866Z,66.34
2018-09-10T04:14:30.824Z,65.95
2018-09-10T04:17:02.737Z,66.29
2018-09-10T04:19:30.942Z,66.41
2018-09-10T04:21:59.933Z,66.66
2018-09-10T04:24:28.336Z,67.03
2018-09-10T04:26:56.541Z,66.82
2018-09-10T04:29:24.982Z,67.86
2018-09-10T04:31:53.619Z,68.07
2018-09-10T04:34:21.732Z,68.50
2018-09-10T04:36:49.882Z,68.03
2018-09-10T04:39:17.991Z,68.38
2018-09-10T04:41:46.468Z,68.23
2018-09-10T04:44:17.233Z,68.33
2018-09-10T04:46:46.308Z,68.24
2018-09-10T04:49:14.573Z,68.06
2018-09-10T04:51:43.131Z,67.74
2018-09-10T04:54:11.564Z,67.81
2018-09-10T04:56:39.897Z,67.93
2018-09-10T04:59:08.286Z,68.13
2018-09-10T05:01:36.675Z,67.72
2018-09-10T05:04:04.804Z,68.03
2018-09-10T05:06:33.008Z,67.76
2018-09-10T05:09:01.146Z,68.40
2018-09-10T05:11:29.275Z,68.37
2018-09-10T05:13:57.716Z,67.69
2018-09-10T05:16:27.591Z,67.49
2018-09-10T05:18:56.279Z,67.74
2018-09-10T05:21:24.403Z,67.45
2018-09-10T05:23:52.794Z,67.36
2018-09-10T05:26:21.283Z,67.36
2018-09-10T05:28:49.735Z,68.10
2018-09-10T05:31:18.055Z,67.54
2018-09-10T05:33:46.212Z,67.63
2018-09-10T05:36:14.680Z,67.05
2018-09-10T05:38:43.311Z,66.56
2018-09-10T05:41:11.476Z,66.79
2018-09-10T05:43:39.884Z,66.53
2018-09-10T05:46:08.028Z,66.32
2018-09-10T05:48:36.822Z,66.27
2018-09-10T05:51:05.294Z,66.96
2018-09-10T05:53:33.743Z,66.49
2018-09-10T05:56:02.132Z,66.47
2018-09-10T05:58:30.641Z,65.79
2018-09-10T06:00:59.304Z,66.29
2018-09-10T06:03:27.757Z,65.77
2018-09-10T06:05:55.955Z,66.26
2018-09-10T06:08:28.036Z,66.72
2018-09-10T06:11:00.501Z,66.56
2018-09-10T06:13:29.283Z,66.86
2018-09-10T06:15:57.751Z,66.84
2018-09-10T06:18:27.652Z,67.00
2018-09-10T06:20:56.048Z,66.43
2018-09-10T06:23:25.573Z,66.70
2018-09-10T06:25:54.907Z,67.29
2018-09-10T06:28:23.495Z,67.35
2018-09-10T06:30:51.596Z,67.39
2018-09-10T06:33:20.043Z,66.25
2018-09-10T06:35:48.373Z,66.19
2018-09-10T06:38:16.684Z,66.35
2018-09-10T06:40:45.649Z,66.54
2018-09-10T06:43:14.416Z,66.67
2018-09-10T06:45:42.543Z,66.26
2018-09-10T06:48:11.335Z,66.64
2018-09-10T06:50:39.803Z,66.98
2018-09-10T06:53:09.808Z,66.87
2018-09-10T06:55:38.984Z,66.80
2018-09-10T06:58:07.108Z,66.48
2018-09-10T07:00:35.397Z,66.40
2018-09-10T07:03:03.516Z,65.85
2018-09-10T07:05:32.224Z,66.54
2018-09-10T07:08:00.371Z,66.55
2018-09-10T07:10:28.539Z,66.36
2018-09-10T07:12:57.205Z,66.75
2018-09-10T07:15:25.720Z,66.89
2018-09-10T07:17:54.143Z,67.09
2018-09-10T07:20:22.640Z,66.56
2018-09-10T07:22:50.763Z,66.90
2018-09-10T07:25:19.195Z,67.25
2018-09-10T07:27:47.320Z,66.61
2018-09-10T07:30:15.792Z,67.38
2018-09-10T07:32:44.425Z,66.90
2018-09-10T07:35:13.945Z,67.46
2018-09-10T07:37:42.408Z,67.92
2018-09-10T07:40:10.540Z,68.02
2018-09-10T07:42:38.703Z,69.09
2018-09-10T07:45:07.271Z,69.11
2018-09-10T07:47:35.517Z,68.58
2018-09-10T07:50:04.419Z,68.94
2018-09-10T07:52:32.535Z,69.69
2018-09-10T07:55:00.675Z,70.13
2018-09-10T07:57:29.140Z,69.45
2018-09-10T07:59:57.604Z,69.08
2018-09-10T08:07:25.771Z,70.23
2018-09-10T08:09:54.237Z,69.93
2018-09-10T08:12:22.903Z,69.07
2018-09-10T08:14:51.033Z,69.11
2018-09-10T08:17:19.467Z,69.04
2018-09-10T08:19:47.935Z,69.09
2018-09-10T08:22:16.374Z,68.82
2018-09-10T08:24:45.195Z,69.26
2018-09-10T08:27:13.904Z,69.37
2018-09-10T08:29:42.036Z,70.31
2018-09-10T08:32:10.564Z,70.07
2018-09-10T08:34:38.701Z,70.80
2018-09-10T08:37:07.332Z,70.01
2018-09-10T08:39:35.800Z,71.04
2018-09-10T08:42:04.124Z,70.59
2018-09-10T08:44:32.259Z,70.56
2018-09-10T08:47:00.712Z,70.92
2018-09-10T08:49:29.183Z,70.72
2018-09-10T08:51:57.616Z,70.67
2018-09-10T08:54:26.212Z,70.75
2018-09-10T08:56:54.765Z,69.97
2018-09-10T08:59:23.392Z,70.44
2018-09-10T09:01:51.907Z,70.64
2018-09-10T09:04:20.184Z,70.35
2018-09-10T09:06:48.628Z,70.42
2018-09-10T09:09:17.131Z,70.79
2018-09-10T09:11:45.255Z,70.59
2018-09-10T09:14:14.569Z,70.41
2018-09-10T09:16:43.411Z,70.73
2018-09-10T09:19:11.872Z,70.53
2018-09-10T09:21:40.353Z,71.03
2018-09-10T09:24:09.009Z,71.24
2018-09-10T09:26:37.459Z,70.92
2018-09-10T09:29:05.796Z,70.81
2018-09-10T09:31:34.244Z,70.74
2018-09-10T09:34:03.287Z,69.62
2018-09-10T09:36:37.020Z,69.60
2018-09-10T09:39:12.536Z,69.87
2018-09-10T09:41:46.470Z,69.07
2018-09-10T09:44:20.432Z,68.76
2018-09-10T09:46:48.808Z,69.48
2018-09-10T09:49:16.945Z,68.97
2018-09-10T09:51:45.276Z,69.67
2018-09-10T09:54:13.751Z,68.86
2018-09-10T09:56:41.930Z,69.53
2018-09-10T09:59:10.552Z,68.95
2018-09-10T10:01:40.564Z,68.35
2018-09-10T10:04:10.189Z,67.23
2018-09-10T10:06:38.401Z,67.26
2018-09-10T10:09:12.076Z,67.07
2018-09-10T10:11:41.242Z,64.93
2018-09-10T10:14:10.573Z,63.46
2018-09-10T10:16:39.168Z,63.24
2018-09-10T10:19:08.180Z,63.90
2018-09-10T10:21:36.328Z,63.63
2018-09-10T10:24:04.644Z,64.74
2018-09-10T10:26:33.108Z,64.60
2018-09-10T10:29:01.573Z,65.18
2018-09-10T10:31:30.040Z,64.40
2018-09-10T10:33:58.201Z,64.91
2018-09-10T10:36:26.664Z,64.45
2018-09-10T10:38:54.771Z,62.59
2018-09-10T10:41:22.904Z,60.92
2018-09-10T10:43:51.016Z,60.54
2018-09-10T10:46:19.168Z,59.71
2018-09-10T10:48:47.288Z,58.73
2018-09-10T10:51:15.749Z,59.53
2018-09-10T10:53:44.223Z,59.54
2018-09-10T10:56:12.532Z,58.33
2018-09-10T10:58:40.988Z,58.86
2018-09-10T11:01:09.448Z,59.39
2018-09-10T11:03:37.912Z,59.25
2018-09-10T11:06:06.495Z,59.07
2018-09-10T11:08:34.676Z,59.56
2018-09-10T11:11:02.812Z,60.05
2018-09-10T11:13:30.973Z,58.97
2018-09-10T11:15:59.096Z,58.53
2018-09-10T11:18:27.743Z,57.72
2018-09-10T11:20:55.875Z,58.92
2018-09-10T11:23:24.319Z,59.28
2018-09-10T11:25:53.244Z,59.45
2018-09-10T11:28:21.352Z,58.28
2018-09-10T11:30:49.804Z,58.07
2018-09-10T11:33:17.937Z,56.16
2018-09-10T11:35:46.068Z,55.55
2018-09-10T11:38:14.204Z,56.61
2018-09-10T11:40:42.321Z,56.64
2018-09-10T11:43:10.484Z,57.79
2018-09-10T11:45:38.937Z,57.85
2018-09-10T11:48:07.469Z,58.79
2018-09-10T11:50:35.639Z,57.97
2018-09-10T11:53:04.308Z,57.73
2018-09-10T11:55:32.529Z,56.75
2018-09-10T11:58:01.086Z,56.19
2018-09-10T12:00:29.736Z,55.95
2018-09-10T12:02:58.191Z,56.83
2018-09-10T12:05:26.640Z,55.78
2018-09-10T12:07:54.773Z,56.10
2018-09-10T12:10:23.385Z,55.29
2018-09-10T12:12:51.521Z,54.51
2018-09-10T12:15:20.068Z,55.34
2018-09-10T12:17:48.200Z,54.61
2018-09-10T12:20:16.648Z,54.83
2018-09-10T12:22:45.512Z,55.55
2018-09-10T12:25:14.012Z,55.67
2018-09-10T12:27:42.139Z,56.67
2018-09-10T12:30:10.265Z,56.49
2018-09-10T12:32:38.744Z,56.10
2018-09-10T12:35:07.103Z,56.51
2018-09-10T12:37:35.253Z,57.03
2018-09-10T12:40:04.011Z,57.81
2018-09-10T12:42:32.488Z,58.06
2018-09-10T12:45:00.696Z,56.89
2018-09-10T12:47:28.825Z,57.11
2018-09-10T12:49:57.472Z,57.47
2018-09-10T12:52:26.070Z,56.65
2018-09-10T12:54:54.591Z,57.25
2018-09-10T12:57:23.077Z,57.27
2018-09-10T12:59:51.797Z,56.08
2018-09-10T13:02:20.573Z,56.95
2018-09-10T13:04:48.678Z,57.17
2018-09-10T13:07:17.140Z,56.48
2018-09-10T13:09:45.605Z,56.79
2018-09-10T13:12:14.058Z,56.93
2018-09-10T13:14:42.956Z,55.46
2018-09-10T13:17:11.639Z,56.47
2018-09-10T13:19:40.121Z,56.50
2018-09-10T13:22:08.560Z,56.07
2018-09-10T13:24:37.016Z,57.30
2018-09-10T13:27:05.505Z,56.27
2018-09-10T13:29:33.662Z,57.71
2018-09-10T13:32:01.997Z,57.15
2018-09-10T13:34:30.331Z,56.36
2018-09-10T13:36:58.777Z,56.50
2018-09-10T13:39:27.285Z,56.32
2018-09-10T13:41:55.416Z,56.49
2018-09-10T13:44:23.552Z,56.81
2018-09-10T13:46:52.054Z,57.22
2018-09-10T13:49:21.020Z,57.58
2018-09-10T13:51:49.468Z,56.93
2018-09-10T13:54:17.917Z,56.44
2018-09-10T13:56:46.160Z,57.30
2018-09-10T13:59:14.288Z,57.39
2018-09-10T14:01:42.609Z,57.35
2018-09-10T14:04:11.312Z,56.99
2018-09-10T14:06:39.949Z,56.46
2018-09-10T14:09:08.517Z,56.49
2018-09-10T14:11:37.652Z,56.75
2018-09-10T14:14:06.922Z,56.52
2018-09-10T14:16:35.649Z,57.34
2018-09-10T14:19:04.813Z,57.97
2018-09-10T14:21:33.193Z,57.13
2018-09-10T14:24:01.528Z,56.41
2018-09-10T14:26:30.201Z,56.64
2018-09-10T14:28:58.345Z,57.27
2018-09-10T14:31:26.991Z,57.29
2018-09-10T14:33:55.661Z,57.62
2018-09-10T14:36:24.292Z,57.04
2018-09-10T14:38:52.648Z,56.74
2018-09-10T14:41:20.976Z,56.62
2018-09-10T14:43:49.128Z,57.19
2018-09-10T14:46:17.798Z,57.81
2018-09-10T14:48:45.925Z,57.72
2018-09-10T14:51:14.044Z,57.25
2018-09-10T14:53:42.690Z,57.67
2018-09-10T14:56:11.331Z,57.31
2018-09-10T14:58:39.817Z,57.69
2018-09-10T15:01:07.944Z,57.41
2018-09-10T15:03:36.396Z,57.40
2018-09-10T15:06:04.524Z,57.98
2018-09-10T15:08:32.910Z,56.91
2018-09-10T15:11:01.366Z,57.54
2018-09-10T15:13:29.476Z,57.12
2018-09-10T15:15:57.940Z,56.94
2018-09-10T15:18:26.416Z,56.96
2018-09-10T15:20:55.068Z,56.93
2018-09-10T15:23:23.203Z,57.42
2018-09-10T15:25:51.439Z,57.49
2018-09-10T15:28:19.695Z,57.62
2018-09-10T15:30:48.156Z,58.18
2018-09-10T15:33:16.261Z,58.88
2018-09-10T15:35:44.384Z,59.09
2018-09-10T15:38:12.859Z,59.34
2018-09-10T15:40:41.043Z,58.85
2018-09-10T15:48:56.595Z,60.11
2018-09-10T15:51:25.244Z,60.35
2018-09-10T16:02:32.781Z,60.70
2018-09-10T16:05:01.209Z,60.73
2018-09-10T16:07:29.308Z,60.18
2018-09-10T16:09:57.452Z,60.52
2018-09-10T16:12:26.116Z,60.03
2018-09-10T16:14:54.208Z,59.90
2018-09-10T16:20:36.896Z,60.24
2018-09-10T16:23:05.942Z,59.08
2018-09-10T16:25:34.609Z,57.82
2018-09-10T16:28:03.028Z,58.85
2018-09-10T16:30:32.650Z,57.82
2018-09-10T16:33:01.069Z,57.69
2018-09-10T16:35:29.783Z,57.41
2018-09-10T16:37:58.134Z,56.51
2018-09-10T16:40:26.561Z,56.48
2018-09-10T16:42:55.777Z,56.44
2018-09-10T16:45:24.227Z,57.49
2018-09-10T16:47:52.669Z,57.76
2018-09-10T16:50:21.101Z,57.65
2018-09-10T16:52:49.197Z,57.38
2018-09-10T16:55:17.873Z,58.38
2018-09-10T16:57:46.318Z,57.69
2018-09-10T17:00:14.402Z,58.14
2018-09-10T17:02:42.845Z,59.01
2018-09-10T17:05:10.937Z,58.56
2018-09-10T17:07:39.660Z,57.59
2018-09-10T17:10:08.341Z,57.96
2018-09-10T17:12:36.925Z,58.74
2018-09-10T17:15:05.744Z,58.94
2018-09-10T17:17:33.847Z,58.94
2018-09-10T17:20:02.476Z,58.61
2018-09-10T17:22:31.151Z,59.79
2018-09-10T17:24:59.413Z,58.79
2018-09-10T17:27:28.080Z,59.42
2018-09-10T17:29:56.929Z,59.05
2018-09-10T17:32:25.413Z,59.25
2018-09-10T17:34:53.849Z,59.63
2018-09-10T17:37:21.949Z,59.93
2018-09-10T17:39:50.377Z,59.80
2018-09-10T17:42:19.033Z,59.79
2018-09-10T17:44:47.457Z,60.45
2018-09-10T17:47:16.193Z,60.89
2018-09-10T17:49:44.750Z,60.88
2018-09-10T17:52:13.217Z,60.92
2018-09-10T17:54:41.645Z,60.91
2018-09-10T17:57:10.321Z,61.51
2018-09-10T17:59:38.982Z,61.29
2018-09-10T18:02:07.398Z,61.71
2018-09-10T18:04:35.912Z,61.95
2018-09-10T18:07:05.660Z,61.48
2018-09-10T18:09:35.283Z,62.37
2018-09-10T18:12:04.032Z,62.66
2018-09-10T18:14:32.281Z,62.52
2018-09-10T18:17:00.429Z,62.79
2018-09-10T18:22:34.997Z,62.53
2018-09-10T18:25:03.149Z,62.74
2018-09-10T18:27:31.705Z,62.67
2018-09-10T18:30:00.122Z,62.96
2018-09-10T18:32:28.610Z,62.99
2018-09-10T18:34:56.710Z,63.16
2018-09-10T18:37:24.800Z,63.78
2018-09-10T18:39:53.266Z,63.91
2018-09-10T18:42:21.701Z,63.99
2018-09-10T18:44:50.151Z,63.51
2018-09-10T18:47:18.616Z,64.06
2018-09-10T18:49:46.977Z,63.71
2018-09-10T18:52:15.626Z,63.92
2018-09-10T18:54:44.284Z,64.41
2018-09-10T18:57:12.701Z,64.35
2018-09-10T18:59:41.197Z,64.76
2018-09-10T19:02:09.797Z,65.33
2018-09-10T19:04:38.234Z,65.60
2018-09-10T19:07:06.873Z,65.31
2018-09-10T19:09:35.326Z,65.21
2018-09-10T19:12:03.409Z,65.50
2018-09-10T19:14:31.853Z,66.28
2018-09-10T19:17:00.300Z,66.28
2018-09-10T19:19:29.253Z,66.66
2018-09-10T19:21:57.920Z,66.44
2018-09-10T19:24:26.354Z,66.65
2018-09-10T19:26:55.033Z,66.82
2018-09-10T19:29:23.137Z,67.02
2018-09-10T19:31:51.761Z,67.60
2018-09-10T19:34:20.217Z,68.03
2018-09-10T19:36:48.561Z,67.48
2018-09-10T19:39:17.527Z,68.04
2018-09-10T19:41:46.166Z,67.95
2018-09-10T19:44:14.308Z,67.91
2018-09-10T19:46:42.797Z,68.75
2018-09-10T19:49:11.237Z,68.07
2018-09-10T19:51:39.698Z,68.28
2018-09-10T19:54:08.386Z,68.65
2018-09-10T19:56:36.672Z,68.77
2018-09-10T19:59:05.041Z,69.00
2018-09-10T20:01:33.423Z,68.72
2018-09-10T20:04:01.544Z,69.37
2018-09-10T20:06:29.990Z,68.72
2018-09-10T20:08:58.707Z,68.88
2018-09-10T20:11:26.810Z,69.42
2018-09-10T20:13:55.103Z,69.17
2018-09-10T20:16:23.770Z,69.08
2018-09-10T20:18:52.794Z,69.21
2018-09-10T20:21:21.293Z,69.63
2018-09-10T20:23:49.721Z,69.08
2018-09-10T20:26:18.171Z,69.81
2018-09-10T20:28:46.621Z,69.18
2018-09-10T20:31:15.340Z,70.07
2018-09-10T20:33:49.105Z,69.69
2018-09-10T20:36:17.297Z,69.88
2018-09-10T20:38:45.720Z,70.46
2018-09-10T20:41:14.200Z,70.53
2018-09-10T20:43:42.854Z,70.99
2018-09-10T20:46:11.362Z,70.98
2018-09-10T20:48:39.781Z,70.86
2018-09-10T20:51:08.477Z,71.60
2018-09-10T20:53:36.901Z,71.06
2018-09-10T20:56:05.010Z,71.55
2018-09-10T20:58:33.434Z,71.80
2018-09-10T21:01:01.969Z,71.71
2018-09-10T21:03:30.411Z,72.14
2018-09-10T21:05:59.081Z,71.98
2018-09-10T21:08:27.619Z,71.96
2018-09-10T21:10:55.814Z,72.20
2018-09-10T21:13:24.241Z,72.99
2018-09-10T21:15:52.810Z,72.83
2018-09-10T21:18:21.540Z,73.25
2018-09-10T21:20:49.996Z,73.29
2018-09-10T21:23:18.462Z,73.15
2018-09-10T21:25:47.019Z,73.37
2018-09-10T21:28:16.684Z,73.45
2018-09-10T21:30:45.122Z,73.95
2018-09-10T21:33:13.396Z,73.43
2018-09-10T21:35:41.642Z,73.39
2018-09-10T21:38:10.083Z,73.45
2018-09-10T21:40:38.509Z,74.00
2018-09-10T21:43:06.684Z,73.42
2018-09-10T21:45:35.152Z,73.49
2018-09-10T21:48:03.614Z,73.87
2018-09-10T21:50:32.249Z,74.27
2018-09-10T21:53:00.685Z,74.64
2018-09-10T21:55:29.184Z,74.81
2018-09-10T21:57:57.856Z,74.13
2018-09-10T22:00:26.189Z,74.59
2018-09-10T22:02:54.637Z,73.99
2018-09-10T22:05:22.981Z,74.00
2018-09-10T22:07:51.089Z,74.25
2018-09-10T22:10:19.474Z,74.29
2018-09-10T22:12:48.341Z,74.64
2018-09-10T22:15:16.778Z,74.00
2018-09-10T22:17:45.139Z,74.69
2018-09-10T22:20:13.712Z,74.48
2018-09-10T22:22:42.576Z,73.88
2018-09-10T22:25:11.243Z,74.48
2018-09-10T22:27:40.099Z,73.42
2018-09-10T22:30:08.194Z,73.90
2018-09-10T22:32:36.668Z,73.52
2018-09-10T22:35:04.781Z,74.25
2018-09-10T22:37:33.543Z,74.60
2018-09-10T22:40:02.449Z,74.23
2018-09-10T22:42:30.951Z,74.69
2018-09-10T22:44:59.386Z,74.58
2018-09-10T22:47:27.690Z,75.29
2018-09-10T22:49:56.117Z,75.15
2018-09-10T22:52:24.557Z,75.03
2018-09-10T22:54:52.985Z,74.64
2018-09-10T22:57:21.433Z,75.37
2018-09-10T22:59:49.865Z,75.21
2018-09-10T23:02:18.297Z,74.90
2018-09-10T23:04:46.729Z,74.77
2018-09-10T23:07:15.147Z,74.93
2018-09-10T23:09:43.845Z,75.37
2018-09-10T23:12:12.508Z,75.26
2018-09-10T23:14:40.606Z,75.16
2018-09-10T23:17:08.718Z,74.69
2018-09-10T23:19:37.141Z,75.67
2018-09-10T23:22:05.465Z,74.95
2018-09-10T23:24:33.585Z,75.70
2018-09-10T23:27:02.798Z,75.69
2018-09-10T23:29:31.390Z,75.63
2018-09-10T23:32:00.065Z,75.30
2018-09-10T23:34:28.153Z,75.29
2018-09-10T23:36:56.576Z,75.38
2018-09-10T23:39:24.925Z,76.04
2018-09-10T23:41:53.028Z,76.13
2018-09-10T23:44:21.480Z,75.41
2018-09-10T23:46:49.905Z,75.50
2018-09-10T23:49:18.353Z,76.03
2018-09-10T23:51:47.078Z,75.74
2018-09-10T23:54:15.520Z,76.41
2018-09-10T23:56:43.941Z,76.59
2018-09-10T23:59:12.398Z,76.50
